createdAt,value
2018-09-17T00:00:36.145Z,6
2018-09-17T00:05:16.025Z,6
2018-09-17T00:10:18.921Z,5
2018-09-17T00:15:13.224Z,6
2018-09-17T00:20:13.096Z,7
2018-09-17T00:25:12.801Z,6
2018-09-17T00:30:12.510Z,7
2018-09-17T00:35:21.776Z,6
2018-09-17T00:40:30.693Z,7
2018-09-17T00:45:14.281Z,6
2018-09-17T00:50:21.343Z,7
2018-09-17T00:55:14.920Z,7
2018-09-17T01:00:14.040Z,7
2018-09-17T01:05:14.948Z,6
2018-09-17T01:10:14.101Z,7
2018-09-17T01:15:14.116Z,7
2018-09-17T01:20:15.764Z,6
2018-09-17T01:25:12.564Z,6
2018-09-17T01:30:13.210Z,7
2018-09-17T01:35:26.100Z,7
2018-09-17T01:40:15.630Z,7
2018-09-17T01:45:21.995Z,5
2018-09-17T01:50:15.309Z,6
2018-09-17T01:55:12.934Z,6
2018-09-17T02:00:12.462Z,7
2018-09-17T02:05:13.334Z,5
2018-09-17T02:10:15.056Z,7
2018-09-17T02:15:12.258Z,8
2018-09-17T02:20:12.507Z,7
2018-09-17T02:25:13.509Z,8
2018-09-17T02:30:12.187Z,7
2018-09-17T02:35:26.973Z,7
2018-09-17T02:40:14.322Z,8
2018-09-17T02:45:18.654Z,8
2018-09-17T02:50:14.733Z,8
2018-09-17T02:55:14.583Z,0
2018-09-17T03:00:16.911Z,9
2018-09-17T03:05:13.377Z,9
2018-09-17T03:10:16.449Z,8
2018-09-17T03:15:13.821Z,9
2018-09-17T03:20:13.370Z,8
2018-09-17T03:25:12.698Z,7
2018-09-17T03:30:12.587Z,8
2018-09-17T03:35:40.557Z,8
2018-09-17T03:40:28.163Z,8
2018-09-17T03:46:04.553Z,8
2018-09-17T03:50:14.614Z,8
2018-09-17T03:55:12.295Z,8
2018-09-17T04:00:13.678Z,8
2018-09-17T04:05:12.441Z,7
2018-09-17T04:10:12.688Z,8
2018-09-17T04:15:12.413Z,10
2018-09-17T04:20:12.559Z,8
2018-09-17T04:25:12.376Z,8
2018-09-17T04:30:14.203Z,8
2018-09-17T04:35:24.609Z,9
2018-09-17T04:40:15.152Z,9
2018-09-17T04:45:15.999Z,12
2018-09-17T04:50:12.621Z,11
2018-09-17T04:55:12.622Z,11
2018-09-17T05:00:11.689Z,10
2018-09-17T05:05:19.566Z,9
2018-09-17T05:10:12.314Z,11
2018-09-17T05:15:12.583Z,10
2018-09-17T05:20:15.001Z,11
2018-09-17T05:25:12.152Z,12
2018-09-17T05:30:12.908Z,12
2018-09-17T05:35:11.771Z,11
2018-09-17T05:40:11.759Z,12
2018-09-17T05:45:11.970Z,14
2018-09-17T05:50:12.093Z,11
2018-09-17T05:55:12.347Z,12
2018-09-17T06:00:12.726Z,13
2018-09-17T06:05:11.688Z,11
2018-09-17T06:10:11.786Z,13
2018-09-17T06:15:12.130Z,11
2018-09-17T06:20:12.027Z,13
2018-09-17T06:25:11.558Z,14
2018-09-17T06:30:12.705Z,12
2018-09-17T06:35:11.635Z,11
2018-09-17T06:40:11.724Z,13
2018-09-17T06:45:11.805Z,13
2018-09-17T06:50:17.502Z,11
2018-09-17T06:55:11.418Z,11
2018-09-17T07:00:11.697Z,11
2018-09-17T07:05:11.621Z,13
2018-09-17T07:10:13.175Z,12
2018-09-17T07:15:11.881Z,13
2018-09-17T07:20:11.714Z,11
2018-09-17T07:25:14.308Z,13
2018-09-17T07:30:12.323Z,14
2018-09-17T07:35:12.469Z,13
2018-09-17T07:40:11.526Z,13
2018-09-17T07:45:11.664Z,13
2018-09-17T07:50:11.901Z,13
2018-09-17T07:55:11.811Z,13
2018-09-17T08:00:11.661Z,12
2018-09-17T08:05:11.378Z,12
2018-09-17T08:10:11.553Z,13
2018-09-17T08:15:11.474Z,14
2018-09-17T08:20:11.679Z,12
2018-09-17T08:25:11.474Z,11
2018-09-17T08:30:11.823Z,13
2018-09-17T08:35:11.616Z,14
2018-09-17T08:40:11.446Z,11
2018-09-17T08:45:12.232Z,13
2018-09-17T08:50:11.756Z,13
2018-09-17T08:55:11.753Z,12
2018-09-17T09:00:12.055Z,10
2018-09-17T09:05:11.710Z,13
2018-09-17T09:10:11.984Z,12
2018-09-17T09:15:11.310Z,14
2018-09-17T09:20:12.403Z,14
2018-09-17T09:25:11.305Z,12
2018-09-17T09:30:11.744Z,11
2018-09-17T09:35:11.384Z,11
2018-09-17T09:40:11.968Z,10
2018-09-17T09:45:11.381Z,11
2018-09-17T09:50:11.911Z,11
2018-09-17T09:55:11.296Z,9
2018-09-17T10:00:11.489Z,8
2018-09-17T10:05:11.410Z,9
2018-09-17T10:10:11.750Z,8
2018-09-17T10:15:11.611Z,9
2018-09-17T10:20:12.153Z,7
2018-09-17T10:25:11.256Z,8
2018-09-17T10:30:11.521Z,8
2018-09-17T10:35:11.593Z,8
2018-09-17T10:40:12.006Z,9
2018-09-17T10:45:11.406Z,9
2018-09-17T10:50:11.333Z,9
2018-09-17T10:55:11.548Z,0
2018-09-17T11:00:11.511Z,7
2018-09-17T11:05:11.038Z,7
2018-09-17T11:10:11.793Z,8
2018-09-17T11:15:11.308Z,5
2018-09-17T11:20:11.503Z,6
2018-09-17T11:25:11.784Z,6
2018-09-17T11:30:11.318Z,5
2018-09-17T11:35:11.103Z,5
2018-09-17T11:40:11.910Z,5
2018-09-17T11:45:11.112Z,6
2018-09-17T11:50:11.431Z,5
2018-09-17T11:55:15.630Z,6
2018-09-17T12:00:11.516Z,5
2018-09-17T12:05:11.537Z,4
2018-09-17T12:10:11.343Z,4
2018-09-17T12:15:11.373Z,5
2018-09-17T12:20:11.401Z,5
2018-09-17T12:25:11.070Z,4
2018-09-17T12:30:11.217Z,4
2018-09-17T12:35:11.137Z,4
2018-09-17T12:40:11.371Z,4
2018-09-17T12:45:11.112Z,4
2018-09-17T12:50:11.250Z,4
2018-09-17T12:55:11.314Z,5
2018-09-17T13:00:11.009Z,3
2018-09-17T13:05:10.922Z,4
2018-09-17T13:10:11.968Z,5
2018-09-17T13:15:11.710Z,3
2018-09-17T13:20:15.352Z,5
2018-09-17T13:25:11.175Z,4
2018-09-17T13:30:11.431Z,7
2018-09-17T13:35:11.200Z,3
2018-09-17T13:40:11.005Z,3
2018-09-17T13:45:11.884Z,3
2018-09-17T13:50:11.640Z,5
2018-09-17T13:55:11.186Z,4
2018-09-17T14:00:11.171Z,4
2018-09-17T14:05:10.773Z,4
2018-09-17T14:10:16.379Z,4
2018-09-17T14:15:11.187Z,4
2018-09-17T14:20:11.322Z,4
2018-09-17T14:25:11.092Z,4
2018-09-17T14:30:11.253Z,4
2018-09-17T14:35:11.278Z,4
2018-09-17T14:40:11.353Z,4
2018-09-17T14:45:11.012Z,4
2018-09-17T14:50:11.085Z,4
2018-09-17T14:55:10.910Z,4
2018-09-17T15:00:11.266Z,4
2018-09-17T15:05:11.061Z,4
2018-09-17T15:10:11.132Z,4
2018-09-17T15:15:11.564Z,4
2018-09-17T15:20:11.226Z,4
2018-09-17T15:25:11.224Z,3
2018-09-17T15:30:11.102Z,2
2018-09-17T15:35:10.813Z,3
2018-09-17T15:40:11.283Z,3
2018-09-17T15:45:10.843Z,3
2018-09-17T15:50:11.244Z,3
2018-09-17T15:55:10.966Z,4
2018-09-17T16:00:10.860Z,4
2018-09-17T16:05:11.107Z,2
2018-09-17T16:10:11.105Z,3
2018-09-17T16:15:11.089Z,4
2018-09-17T16:20:10.584Z,4
2018-09-17T16:25:10.635Z,4
2018-09-17T16:30:11.026Z,5
2018-09-17T16:35:10.775Z,4
2018-09-17T16:40:11.117Z,4
2018-09-17T16:45:10.887Z,4
2018-09-17T16:50:10.847Z,4
2018-09-17T16:55:10.798Z,4
2018-09-17T17:10:29.069Z,4
2018-09-17T17:15:22.820Z,4
2018-09-17T17:20:22.852Z,4
2018-09-17T17:25:22.714Z,4
2018-09-17T17:30:23.525Z,4
2018-09-17T17:35:22.870Z,4
2018-09-17T17:40:23.239Z,4
2018-09-17T17:45:22.819Z,4
2018-09-17T17:50:22.718Z,4
2018-09-17T17:55:22.815Z,4
2018-09-17T18:00:23.707Z,4
2018-09-17T18:05:22.998Z,4
2018-09-17T18:10:22.689Z,4
2018-09-17T18:15:22.867Z,4
2018-09-17T18:20:22.709Z,4
2018-09-17T18:25:22.965Z,4
2018-09-17T18:30:22.674Z,4
2018-09-17T18:35:22.770Z,5
2018-09-17T18:40:22.656Z,4
2018-09-17T18:45:22.743Z,0
2018-09-17T18:50:22.945Z,4
2018-09-17T18:55:22.663Z,5
2018-09-17T19:00:22.715Z,4
2018-09-17T19:05:22.708Z,3
2018-09-17T19:10:22.686Z,3
2018-09-17T19:15:22.894Z,4
2018-09-17T19:20:22.961Z,5
2018-09-17T19:25:22.700Z,4
2018-09-17T19:30:22.661Z,4
2018-09-17T19:35:22.777Z,6
2018-09-17T19:40:22.785Z,3
2018-09-17T19:45:22.628Z,4
2018-09-17T19:50:22.683Z,6
2018-09-17T19:55:22.518Z,6
2018-09-17T20:00:22.640Z,6
2018-09-17T20:05:22.791Z,7
2018-09-17T20:10:22.550Z,8
2018-09-17T20:15:22.605Z,6
2018-09-17T20:20:22.526Z,8
2018-09-17T20:25:22.795Z,7
2018-09-17T20:30:22.536Z,7
2018-09-17T20:35:22.685Z,6
2018-09-17T20:40:22.511Z,6
2018-09-17T20:45:22.663Z,6
2018-09-17T20:50:22.632Z,8
2018-09-17T20:55:22.744Z,8
2018-09-17T21:00:22.841Z,8
2018-09-17T21:05:22.490Z,7
2018-09-17T21:10:22.657Z,5
2018-09-17T21:15:22.686Z,7
2018-09-17T21:20:22.540Z,6
2018-09-17T21:25:22.928Z,7
2018-09-17T21:30:22.769Z,7
2018-09-17T21:35:22.476Z,7
2018-09-17T21:40:22.647Z,5
2018-09-17T21:45:22.396Z,8
2018-09-17T21:50:22.567Z,6
2018-09-17T21:55:22.468Z,9
2018-09-17T22:00:22.764Z,10
2018-09-17T22:05:22.541Z,10
2018-09-17T22:10:22.563Z,10
2018-09-17T22:15:22.616Z,12
2018-09-17T22:20:23.381Z,9
2018-09-17T22:25:22.436Z,11
2018-09-17T22:30:22.486Z,11
2018-09-17T22:35:22.354Z,9
2018-09-17T22:40:22.641Z,12
2018-09-17T22:45:22.468Z,11
2018-09-17T22:50:22.639Z,12
2018-09-17T22:55:22.519Z,12
2018-09-17T23:00:22.601Z,12
2018-09-17T23:05:23.132Z,11
2018-09-17T23:10:22.587Z,11
2018-09-17T23:15:22.623Z,12
2018-09-17T23:20:22.530Z,13
2018-09-17T23:25:22.547Z,14
2018-09-17T23:30:23.284Z,15
2018-09-17T23:35:22.316Z,12
2018-09-17T23:40:22.640Z,14
2018-09-17T23:45:22.783Z,10
2018-09-17T23:50:22.641Z,15
2018-09-17T23:55:22.485Z,16
